Time;durP1;ratioP1;P1;durP2;ratioP2;P2;SDS_P1;SDS_P2;PMS_P1;PMS_P2;Temp;Humidity;BMP_temperature;BMP_pressure;BME280_temperature;BME280_humidity;BME280_pressure;Samples;Min_cycle;Max_cycle;Signal;HPM_P1;HPM_P2
2020/12/07 00:00:11;;;;;;;3.33;1.03;;;;;;;6.87;100.00;99181.16;4974300;28;20460;-79
2020/12/07 00:02:36;;;;;;;2.27;0.70;;;;;;;6.90;100.00;99195.72;4975171;28;20811;-79
2020/12/07 00:05:03;;;;;;;3.63;1.07;;;;;;;6.90;100.00;99191.13;4977138;28;20437;-79
2020/12/07 00:07:28;;;;;;;3.43;0.67;;;;;;;6.93;100.00;99190.38;4974933;28;20844;-79
2020/12/07 00:09:54;;;;;;;3.87;1.00;;;;;;;6.93;100.00;99187.72;5005502;28;20469;-79
2020/12/07 00:12:25;;;;;;;2.57;0.50;;;;;;;6.91;100.00;99186.56;4976232;28;20225;-79
2020/12/07 00:14:51;;;;;;;4.13;1.20;;;;;;;6.93;100.00;99179.69;4975575;28;20225;-79
2020/12/07 00:17:24;;;;;;;3.00;0.77;;;;;;;6.92;100.00;99185.41;4974784;28;20815;-79
2020/12/07 00:19:50;;;;;;;2.27;0.60;;;;;;;6.90;100.00;99204.50;4977473;28;20495;-79
2020/12/07 00:22:25;;;;;;;3.40;1.00;;;;;;;6.93;100.00;99200.34;5010538;28;20437;-78
2020/12/07 00:24:52;;;;;;;3.53;1.10;;;;;;;6.86;100.00;99198.34;4986684;28;20524;-78
2020/12/07 00:27:22;;;;;;;4.47;1.10;;;;;;;6.88;100.00;99211.34;4983884;28;20489;-78
2020/12/07 00:29:48;;;;;;;2.60;0.50;;;;;;;6.93;100.00;99208.38;4981365;28;20815;-79
2020/12/07 00:32:13;;;;;;;3.50;1.23;;;;;;;6.93;100.00;99198.41;5002711;28;20449;-80
2020/12/07 00:34:39;;;;;;;3.47;0.87;;;;;;;6.93;100.00;99187.72;4980353;28;20210;-78
2020/12/07 00:37:07;;;;;;;3.33;0.83;;;;;;;6.92;100.00;99196.88;4967653;28;20189;-79
2020/12/07 00:39:32;;;;;;;3.80;0.93;;;;;;;6.90;100.00;99195.72;4975244;28;20206;-79
2020/12/07 00:41:58;;;;;;;3.57;0.60;;;;;;;6.86;100.00;99192.22;4977385;28;20438;-79
2020/12/07 00:44:23;;;;;;;3.87;1.10;;;;;;;6.89;100.00;99181.56;4971599;28;20185;-79
2020/12/07 00:46:49;;;;;;;4.30;1.30;;;;;;;6.89;100.00;99170.84;4978630;28;20682;-79
2020/12/07 00:49:15;;;;;;;1.63;0.30;;;;;;;6.88;100.00;99163.97;4980955;28;20213;-79
2020/12/07 00:51:40;;;;;;;5.30;1.37;;;;;;;6.93;100.00;99162.88;4978971;28;20209;-78
2020/12/07 00:54:06;;;;;;;2.50;0.80;;;;;;;6.88;100.00;99163.97;4996629;28;20193;-78
2020/12/07 00:56:32;;;;;;;3.27;0.90;;;;;;;6.89;100.00;99154.78;4962486;28;20229;-78
2020/12/07 00:58:57;;;;;;;3.00;0.80;;;;;;;6.90;100.00;99156.34;4975764;28;20484;-78
2020/12/07 01:01:23;;;;;;;2.03;0.40;;;;;;;6.89;100.00;99159.41;4974939;28;20648;-79
2020/12/07 01:03:49;;;;;;;3.57;1.13;;;;;;;6.91;100.00;99147.19;5025241;22;20712;-79
2020/12/07 01:06:15;;;;;;;2.93;0.70;;;;;;;6.93;100.00;99144.91;4992667;28;20680;-76
2020/12/07 01:08:41;;;;;;;2.47;0.77;;;;;;;6.91;100.00;99143.75;4975145;28;20441;-80
2020/12/07 01:11:07;;;;;;;3.33;0.70;;;;;;;6.97;100.00;99145.72;4978986;28;20436;-80
2020/12/07 01:13:33;;;;;;;3.43;0.80;;;;;;;6.98;100.00;99146.47;4983147;28;20464;-77
2020/12/07 01:15:59;;;;;;;3.43;0.63;;;;;;;7.05;100.00;99143.88;4947731;28;20483;-79
2020/12/07 01:18:26;;;;;;;2.20;0.73;;;;;;;7.06;100.00;99151.56;4988251;28;20174;-80
2020/12/07 01:20:51;;;;;;;2.90;0.77;;;;;;;7.08;100.00;99145.81;5005110;28;20515;-79
2020/12/07 01:23:18;;;;;;;2.93;0.90;;;;;;;7.09;100.00;99142.78;4995324;28;20460;-78
2020/12/07 01:25:43;;;;;;;2.87;1.00;;;;;;;7.05;100.00;99139.28;4992557;28;21026;-79
2020/12/07 01:28:09;;;;;;;2.80;0.83;;;;;;;7.09;100.00;99142.78;4992320;28;20189;-80
2020/12/07 01:30:35;;;;;;;3.90;0.73;;;;;;;7.09;100.00;99145.44;4988383;28;20178;-79
2020/12/07 01:33:00;;;;;;;3.63;1.10;;;;;;;7.16;100.00;99137.47;4992431;28;20205;-80
2020/12/07 01:35:28;;;;;;;2.03;0.60;;;;;;;7.18;100.00;99131.78;4984077;28;21290;-80
2020/12/07 01:37:53;;;;;;;2.53;0.40;;;;;;;7.18;100.00;99135.19;4984383;28;20433;-80
2020/12/07 01:40:19;;;;;;;2.43;0.70;;;;;;;7.11;100.00;99145.84;4988418;28;20182;-80
2020/12/07 01:42:45;;;;;;;2.63;0.83;;;;;;;7.06;100.00;99130.13;4990662;28;20444;-79
2020/12/07 01:45:11;;;;;;;2.33;0.63;;;;;;;7.16;100.00;99131.38;4988193;28;20185;-78
2020/12/07 01:47:37;;;;;;;3.60;1.10;;;;;;;7.24;100.00;99132.94;4988786;28;20178;-78
2020/12/07 01:50:08;;;;;;;2.83;0.87;;;;;;;7.30;100.00;99113.50;4974374;28;20186;-78
2020/12/07 01:52:34;;;;;;;3.20;0.80;;;;;;;7.30;100.00;99113.50;4980147;28;20814;-78
2020/12/07 01:55:01;;;;;;;2.90;0.90;;;;;;;7.36;100.00;99110.47;4966954;28;20255;-77
2020/12/07 01:57:37;;;;;;;3.03;0.83;;;;;;;7.42;100.00;99100.97;4990790;28;20430;-78
2020/12/07 02:00:06;;;;;;;3.63;0.97;;;;;;;7.44;100.00;99107.50;4988701;28;20444;-78
2020/12/07 02:02:44;;;;;;;3.90;1.20;;;;;;;7.46;100.00;99110.56;4986407;28;20538;-77
2020/12/07 02:05:10;;;;;;;2.40;0.70;;;;;;;7.48;100.00;99104.84;4985870;28;20459;-77
2020/12/07 02:07:37;;;;;;;3.23;0.80;;;;;;;7.53;100.00;99107.94;4988698;28;20432;-77
2020/12/07 02:10:03;;;;;;;3.03;0.80;;;;;;;7.52;100.00;99105.63;4987242;28;20518;-77
2020/12/07 02:12:30;;;;;;;3.00;0.53;;;;;;;7.63;100.00;99090.41;4980364;28;20886;-78
2020/12/07 02:15:16;;;;;;;5.03;0.90;;;;;;;7.63;100.00;99107.25;4989830;28;20531;-77
2020/12/07 02:17:42;;;;;;;2.27;0.57;;;;;;;7.62;100.00;99107.63;4935611;29;20273;-78
2020/12/07 02:20:07;;;;;;;2.83;0.77;;;;;;;7.61;100.00;99098.03;4940277;29;20444;-77
2020/12/07 02:22:33;;;;;;;2.53;0.70;;;;;;;7.66;100.00;99105.75;4939150;29;20225;-77
2020/12/07 02:25:29;;;;;;;2.57;0.50;;;;;;;7.67;100.00;99099.22;4956173;28;20434;-77
2020/12/07 02:27:55;;;;;;;2.30;0.47;;;;;;;7.66;100.00;99089.66;4939810;29;20461;-77
2020/12/07 02:30:24;;;;;;;2.20;0.60;;;;;;;7.68;100.00;99109.59;4952966;28;20461;-77
2020/12/07 02:32:52;;;;;;;1.60;0.33;;;;;;;7.71;100.00;99097.34;4939213;29;20462;-77
2020/12/07 02:35:23;;;;;;;2.17;0.43;;;;;;;7.72;100.00;99107.69;4909635;29;20462;-77
2020/12/07 02:37:50;;;;;;;3.00;0.70;;;;;;;7.73;100.00;99100.41;4936644;29;20481;-77
2020/12/07 02:40:19;;;;;;;3.33;0.73;;;;;;;7.72;100.00;99091.63;4934569;29;20443;-77
2020/12/07 02:42:45;;;;;;;3.73;0.90;;;;;;;7.77;100.00;99090.47;4928100;29;20470;-78
2020/12/07 02:45:17;;;;;;;3.93;1.30;;;;;;;7.83;100.00;99105.06;4929452;29;21029;-78
2020/12/07 02:47:49;;;;;;;2.53;0.63;;;;;;;7.82;100.00;99090.16;4939494;29;20454;-78
2020/12/07 02:50:16;;;;;;;3.53;0.77;;;;;;;7.80;100.00;99087.06;4936112;29;20442;-78
2020/12/07 02:52:43;;;;;;;2.87;0.77;;;;;;;7.80;100.00;99079.78;4938087;28;20516;-78
2020/12/07 02:55:11;;;;;;;3.57;0.77;;;;;;;7.83;100.00;99075.59;4987658;28;20463;-78
2020/12/07 02:57:39;;;;;;;2.57;0.73;;;;;;;7.77;100.00;99069.06;4997116;28;20437;-77
2020/12/07 03:00:07;;;;;;;3.40;0.80;;;;;;;7.80;100.00;99081.72;4988771;28;20427;-78
2020/12/07 03:02:35;;;;;;;3.40;0.93;;;;;;;7.77;100.00;99069.81;4993473;28;21025;-77
2020/12/07 03:05:04;;;;;;;2.90;0.57;;;;;;;7.65;100.00;99050.59;4987426;28;20444;-77
2020/12/07 03:07:30;;;;;;;2.00;0.50;;;;;;;7.77;100.00;99051.06;4994639;28;20493;-79
2020/12/07 03:09:59;;;;;;;2.33;0.70;;;;;;;7.81;100.00;99072.53;4982017;28;20803;-80
2020/12/07 03:12:26;;;;;;;1.97;0.37;;;;;;;7.84;100.00;99066.44;4988126;28;20468;-79
2020/12/07 03:14:54;;;;;;;3.57;1.13;;;;;;;7.86;100.00;99064.13;5000905;28;20569;-78
2020/12/07 03:17:21;;;;;;;2.20;0.50;;;;;;;7.87;100.00;99065.66;4988191;28;20502;-79
2020/12/07 03:19:47;;;;;;;3.23;0.87;;;;;;;7.79;100.00;99056.81;4983101;28;20521;-79
2020/12/07 03:22:12;;;;;;;2.37;0.50;;;;;;;7.87;100.00;99050.38;4975920;28;20193;-79
2020/12/07 03:24:38;;;;;;;2.67;0.70;;;;;;;7.88;100.00;99041.16;4974945;28;20174;-79
2020/12/07 03:27:27;;;;;;;1.87;0.50;;;;;;;7.89;100.00;99041.94;4984356;28;20232;-79
2020/12/07 03:29:53;;;;;;;2.47;0.63;;;;;;;7.93;100.00;99040.03;4955527;28;20450;-80
2020/12/07 03:32:22;;;;;;;2.50;0.40;;;;;;;7.91;100.00;99039.66;4965774;28;20493;-79
2020/12/07 03:34:48;;;;;;;2.30;0.80;;;;;;;7.83;100.00;99046.13;4954490;28;20842;-80
2020/12/07 03:37:14;;;;;;;2.60;0.70;;;;;;;7.90;100.00;99040.78;4968266;28;20449;-79
2020/12/07 03:39:51;;;;;;;2.13;0.60;;;;;;;7.96;100.00;99028.56;4939816;28;20185;-79
2020/12/07 03:42:17;;;;;;;3.03;0.93;;;;;;;7.95;100.00;99027.81;4959052;28;20456;-79
2020/12/07 03:44:44;;;;;;;3.37;0.83;;;;;;;7.94;100.00;99010.19;4949306;28;20175;-79
2020/12/07 03:47:11;;;;;;;1.70;0.40;;;;;;;7.96;100.00;99004.44;4953019;28;20438;-79
2020/12/07 03:49:37;;;;;;;3.47;0.87;;;;;;;7.96;100.00;99007.13;4953212;28;20444;-79
2020/12/07 03:52:04;;;;;;;3.07;0.80;;;;;;;7.95;100.00;99024.34;4952687;28;20188;-77
2020/12/07 03:54:30;;;;;;;2.17;0.40;;;;;;;7.94;100.00;99007.50;4970401;28;20430;-78
2020/12/07 03:56:56;;;;;;;2.03;0.63;;;;;;;7.99;100.00;99009.06;4968848;28;20508;-79
2020/12/07 03:59:21;;;;;;;3.10;0.80;;;;;;;8.00;100.00;99010.59;4950506;28;20182;-79
2020/12/07 04:01:48;;;;;;;3.70;1.00;;;;;;;7.93;100.00;99024.75;4968078;28;20204;-79
2020/12/07 04:04:18;;;;;;;2.53;0.70;;;;;;;7.98;100.00;99020.91;4953564;28;20292;-78
2020/12/07 04:06:45;;;;;;;2.43;0.57;;;;;;;8.03;100.00;99013.28;4955311;28;20451;-79
2020/12/07 04:09:17;;;;;;;5.53;0.80;;;;;;;8.01;100.00;99020.19;4973317;28;20969;-78
2020/12/07 04:11:43;;;;;;;1.93;0.30;;;;;;;8.03;100.00;99026.69;4985105;28;20496;-78
2020/12/07 04:14:08;;;;;;;2.60;0.80;;;;;;;8.01;100.00;99028.97;4983454;28;20460;-79
2020/12/07 04:16:34;;;;;;;3.10;0.87;;;;;;;8.05;100.00;99023.63;4983374;28;20737;-79
2020/12/07 04:18:59;;;;;;;3.00;0.60;;;;;;;8.07;100.00;99021.34;4983684;28;20650;-78
2020/12/07 04:21:25;;;;;;;3.10;0.63;;;;;;;8.03;100.00;99023.25;4990098;28;20304;-78
2020/12/07 04:23:50;;;;;;;1.80;0.27;;;;;;;7.82;100.00;99021.22;4988970;28;20201;-78
2020/12/07 04:26:16;;;;;;;2.10;0.60;;;;;;;7.92;100.00;99015.16;4983823;28;20197;-79
2020/12/07 04:28:42;;;;;;;2.10;0.40;;;;;;;7.97;100.00;99030.13;4975482;28;20173;-79
2020/12/07 04:31:07;;;;;;;3.83;0.73;;;;;;;8.05;100.00;99027.06;4988283;28;20225;-79
2020/12/07 04:33:33;;;;;;;5.40;1.20;;;;;;;8.05;100.00;99032.44;4999437;28;20956;-78
2020/12/07 04:36:19;;;;;;;2.70;0.60;;;;;;;8.12;100.00;99037.84;4986094;28;20245;-78
2020/12/07 04:38:44;;;;;;;2.00;0.33;;;;;;;8.15;100.00;99036.28;4968815;28;20202;-78
2020/12/07 04:41:10;;;;;;;2.17;0.57;;;;;;;8.22;100.00;99030.97;4965813;28;20448;-78
2020/12/07 04:43:35;;;;;;;2.73;0.80;;;;;;;8.26;100.00;99041.72;4967147;28;20923;-78
2020/12/07 04:46:03;;;;;;;3.47;1.27;;;;;;;8.13;100.00;99054.66;4967784;28;20179;-78
2020/12/07 04:48:29;;;;;;;3.13;1.03;;;;;;;8.13;100.00;99034.00;4954315;28;20189;-77
2020/12/07 04:50:55;;;;;;;2.97;0.90;;;;;;;8.08;100.00;99030.91;4967882;28;20837;-78
2020/12/07 04:53:21;;;;;;;2.70;0.67;;;;;;;8.11;100.00;99019.41;4968602;28;20556;-78
2020/12/07 04:55:47;;;;;;;4.93;0.70;;;;;;;8.18;100.00;99030.19;4964365;28;20567;-77
2020/12/07 04:58:13;;;;;;;1.70;0.40;;;;;;;8.24;100.00;99017.94;4948358;28;21185;-78
2020/12/07 05:00:40;;;;;;;4.47;0.80;;;;;;;8.30;100.00;99029.09;4929814;28;20278;-77
2020/12/07 05:03:05;;;;;;;2.60;0.70;;;;;;;8.19;100.00;99015.63;4951671;28;21804;-78
2020/12/07 05:05:31;;;;;;;2.60;0.70;;;;;;;8.22;100.00;99020.25;4964975;28;20453;-77
2020/12/07 05:07:58;;;;;;;1.77;0.20;;;;;;;8.31;100.00;99018.00;4964534;28;20689;-78
2020/12/07 05:10:35;;;;;;;2.40;0.60;;;;;;;8.36;100.00;99014.19;4964633;28;20190;-77
2020/12/07 05:13:26;;;;;;;2.93;0.67;;;;;;;8.38;100.00;99009.94;4967149;28;20501;-78
2020/12/07 05:15:47;;;;;;;2.70;0.80;;;;;;;8.22;100.00;99004.16;4961016;28;21072;-78
2020/12/07 05:18:12;;;;;;;2.70;0.67;;;;;;;8.32;100.00;98992.72;4982327;28;20456;-78
2020/12/07 05:20:38;;;;;;;1.90;0.60;;;;;;;8.15;100.00;98993.41;4978094;28;20185;-78
2020/12/07 05:23:03;;;;;;;2.10;0.50;;;;;;;8.23;100.00;98990.38;4992251;28;20255;-79
2020/12/07 05:25:29;;;;;;;2.30;0.60;;;;;;;8.30;100.00;99008.41;4982471;28;21308;-79
2020/12/07 05:27:59;;;;;;;2.90;0.83;;;;;;;8.27;100.00;99006.47;4978888;28;20194;-77
2020/12/07 05:30:40;;;;;;;3.33;1.20;;;;;;;8.29;100.00;99009.56;4985179;28;20456;-79
2020/12/07 05:33:05;;;;;;;2.63;0.53;;;;;;;8.24;100.00;99017.94;4979740;28;20503;-78
2020/12/07 05:35:37;;;;;;;3.50;0.70;;;;;;;8.36;100.00;99014.94;4994575;28;20482;-79
2020/12/07 05:38:03;;;;;;;2.23;0.67;;;;;;;8.35;100.00;99016.09;4976311;28;20201;-79
2020/12/07 05:40:29;;;;;;;2.97;0.30;;;;;;;8.39;100.00;99006.13;4978665;28;20945;-78
2020/12/07 05:42:56;;;;;;;2.77;0.90;;;;;;;8.30;100.00;98999.59;4986554;28;20563;-79
2020/12/07 05:45:22;;;;;;;3.17;0.97;;;;;;;8.35;100.00;98983.13;4987028;28;20189;-79
2020/12/07 05:47:49;;;;;;;2.10;0.67;;;;;;;8.47;100.00;98994.28;4982705;28;20452;-79
2020/12/07 05:50:16;;;;;;;2.93;0.73;;;;;;;8.43;100.00;98982.78;4985409;28;20448;-78
2020/12/07 05:52:45;;;;;;;1.90;0.30;;;;;;;8.43;100.00;98979.31;5003794;28;20473;-77
2020/12/07 05:55:12;;;;;;;2.17;0.57;;;;;;;8.51;100.00;98978.94;4981248;28;20476;-79
2020/12/07 05:57:46;;;;;;;2.07;0.37;;;;;;;8.46;100.00;98971.28;4987139;28;20448;-79
2020/12/07 06:00:19;;;;;;;3.10;0.70;;;;;;;8.56;100.00;98977.78;4998243;28;20476;-78
2020/12/07 06:02:47;;;;;;;2.97;0.67;;;;;;;8.61;100.00;98986.25;4984367;28;20507;-80
2020/12/07 06:05:13;;;;;;;2.90;0.80;;;;;;;8.66;100.00;99001.19;4976344;28;20453;-80
2020/12/07 06:07:41;;;;;;;1.90;0.50;;;;;;;8.70;100.00;99001.94;4974829;28;20441;-79
2020/12/07 06:10:06;;;;;;;2.07;0.60;;;;;;;8.59;100.00;99003.88;4976585;28;20455;-78
2020/12/07 06:12:38;;;;;;;3.70;0.90;;;;;;;8.62;100.00;99017.28;4977816;28;21221;-78
2020/12/07 06:15:04;;;;;;;3.00;0.60;;;;;;;8.56;100.00;99000.03;4979537;28;20619;-77
2020/12/07 06:17:31;;;;;;;2.67;0.60;;;;;;;8.45;100.00;99004.63;4985576;28;20448;-79
2020/12/07 06:19:56;;;;;;;1.63;0.37;;;;;;;8.45;100.00;98977.78;4977206;28;20449;-79
2020/12/07 06:22:23;;;;;;;2.57;0.70;;;;;;;8.58;100.00;98989.69;4983149;28;20897;-80
2020/12/07 06:24:53;;;;;;;2.20;0.43;;;;;;;8.68;100.00;98982.78;4980927;28;20231;-77
2020/12/07 06:27:20;;;;;;;2.50;0.50;;;;;;;8.59;100.00;98975.13;4984960;28;20452;-79
2020/12/07 06:30:03;;;;;;;1.77;0.43;;;;;;;8.63;100.00;98989.28;4983935;28;20432;-80
2020/12/07 06:32:45;;;;;;;1.80;0.53;;;;;;;8.72;100.00;98986.25;4979487;28;21015;-78
2020/12/07 06:35:11;;;;;;;2.30;0.80;;;;;;;8.70;100.00;98989.31;4997322;28;20487;-79
2020/12/07 06:37:46;;;;;;;2.43;0.47;;;;;;;8.66;100.00;98985.84;4986589;28;20808;-79
2020/12/07 06:40:20;;;;;;;2.70;0.53;;;;;;;8.59;100.00;98977.81;4972720;28;21904;-79
2020/12/07 06:42:48;;;;;;;2.73;0.50;;;;;;;8.62;100.00;98977.03;4994540;28;20527;-79
2020/12/07 06:45:31;;;;;;;2.90;0.53;;;;;;;8.74;100.00;98955.19;4982060;28;20440;-79
2020/12/07 06:48:14;;;;;;;3.00;0.70;;;;;;;8.63;100.00;98981.25;4982175;28;20480;-78
2020/12/07 06:50:41;;;;;;;2.27;0.67;;;;;;;8.63;100.00;98986.59;4984908;28;20473;-79
2020/12/07 06:55:57;;;;;;;2.43;0.40;;;;;;;8.85;100.00;98987.38;4979993;28;20483;-79
2020/12/07 06:58:37;;;;;;;2.63;0.83;;;;;;;8.86;100.00;99008.50;4978618;28;20491;-77
2020/12/07 07:01:14;;;;;;;4.17;0.87;;;;;;;8.82;100.00;98998.91;4983798;28;20462;-78
2020/12/07 07:03:49;;;;;;;2.40;0.50;;;;;;;8.80;100.00;98993.91;4984727;28;20595;-79
2020/12/07 07:06:19;;;;;;;2.33;0.70;;;;;;;8.78;100.00;99004.28;4974416;28;20443;-80
2020/12/07 07:08:44;;;;;;;3.20;0.90;;;;;;;8.80;100.00;99010.03;4985391;28;20420;-80
2020/12/07 07:11:10;;;;;;;4.10;0.60;;;;;;;8.81;100.00;99008.84;4983178;28;20940;-77
2020/12/07 07:13:36;;;;;;;4.27;0.77;;;;;;;8.85;100.00;99017.69;4963619;28;20213;-79
2020/12/07 07:16:02;;;;;;;4.90;0.83;;;;;;;8.83;100.00;99021.88;4988229;28;20224;-79
2020/12/07 07:18:27;;;;;;;2.80;0.60;;;;;;;8.76;100.00;99014.63;4985007;28;20208;-80
2020/12/07 07:20:59;;;;;;;2.87;1.00;;;;;;;8.68;100.00;99015.75;4982658;28;20528;-79
2020/12/07 07:23:25;;;;;;;1.90;0.40;;;;;;;8.75;100.00;99013.06;4977143;28;20213;-79
2020/12/07 07:25:59;;;;;;;3.00;0.90;;;;;;;8.83;100.00;99021.88;4978603;28;20426;-81
2020/12/07 07:28:25;;;;;;;2.53;0.77;;;;;;;8.92;100.00;99025.72;4976215;28;20213;-78
2020/12/07 07:30:51;;;;;;;2.00;0.43;;;;;;;8.71;100.00;99025.72;4982883;28;20550;-80
2020/12/07 07:33:16;;;;;;;2.57;0.70;;;;;;;8.84;100.00;99023.44;4981062;28;20445;-81
2020/12/07 07:35:42;;;;;;;2.57;0.60;;;;;;;8.84;100.00;99029.59;4991547;28;20284;-78
2020/12/07 07:38:07;;;;;;;5.43;0.90;;;;;;;8.81;100.00;99029.56;4976387;28;20189;-80
2020/12/07 07:40:33;;;;;;;1.97;0.50;;;;;;;8.88;100.00;99035.69;4984408;28;20212;-77
2020/12/07 07:43:03;;;;;;;3.67;0.63;;;;;;;8.88;100.00;99022.28;4975633;28;20208;-80
2020/12/07 07:45:36;;;;;;;3.00;0.80;;;;;;;8.87;100.00;99034.16;4971686;28;20192;-79
2020/12/07 08:15:49;;;;;;;1.90;0.53;;;;;;;8.72;100.00;99056.00;4835673;29;20671;-80
2020/12/07 08:18:18;;;;;;;3.47;0.90;;;;;;;8.85;100.00;99060.63;4822362;29;20916;-77
2020/12/07 08:20:55;;;;;;;4.67;1.07;;;;;;;8.94;100.00;99071.00;4808291;29;20535;-80
2020/12/07 08:23:31;;;;;;;3.00;0.90;;;;;;;8.66;100.00;99071.72;4822462;29;20530;-80
2020/12/07 08:25:58;;;;;;;2.30;0.67;;;;;;;8.56;100.00;99067.09;4833286;29;20461;-80
2020/12/07 08:28:31;;;;;;;3.57;0.60;;;;;;;8.53;100.00;99067.09;4828986;29;20524;-80
2020/12/07 08:31:22;;;;;;;3.20;0.53;;;;;;;8.61;100.00;99068.66;4821092;29;20704;-82
2020/12/07 08:33:58;;;;;;;2.87;0.50;;;;;;;8.71;100.00;99065.22;4805642;29;20971;-80
2020/12/07 08:36:24;;;;;;;2.87;0.60;;;;;;;8.84;100.00;99069.84;4837811;29;20475;-81
2020/12/07 08:38:50;;;;;;;3.10;0.87;;;;;;;8.70;100.00;99077.09;4853664;29;20442;-75
2020/12/07 08:41:27;;;;;;;2.37;0.60;;;;;;;8.75;100.00;99074.03;4876455;29;20451;-81
2020/12/07 08:44:00;;;;;;;2.97;0.77;;;;;;;8.67;100.00;99081.28;4918993;28;20489;-80
2020/12/07 08:46:28;;;;;;;3.13;1.10;;;;;;;8.69;100.00;99070.94;4992228;28;20442;-79
2020/12/07 08:48:55;;;;;;;3.43;0.80;;;;;;;8.78;100.00;99073.28;4975287;28;20445;-80
2020/12/07 08:51:23;;;;;;;2.17;0.60;;;;;;;8.80;100.00;99066.38;4977106;28;20801;-80
2020/12/07 08:53:49;;;;;;;3.00;0.60;;;;;;;8.74;100.00;99057.16;4986415;28;20468;-79
2020/12/07 08:56:15;;;;;;;2.07;0.53;;;;;;;8.79;100.00;99064.06;4986616;28;20472;-77
2020/12/07 08:58:41;;;;;;;2.53;0.70;;;;;;;8.86;100.00;99059.50;4980696;28;20570;-77
2020/12/07 09:01:08;;;;;;;3.87;1.13;;;;;;;8.87;100.00;99066.38;4982990;28;21079;-78
2020/12/07 09:03:37;;;;;;;1.97;0.53;;;;;;;8.94;100.00;99076.38;4979201;28;20534;-79
2020/12/07 09:06:06;;;;;;;2.30;0.57;;;;;;;8.98;100.00;99083.25;4976510;28;20866;-79
2020/12/07 09:08:36;;;;;;;2.77;0.70;;;;;;;8.96;100.00;99077.50;4976400;28;20497;-80
2020/12/07 09:11:07;;;;;;;2.47;0.50;;;;;;;8.96;100.00;99087.50;4985866;28;20456;-80
2020/12/07 09:13:34;;;;;;;2.83;0.90;;;;;;;9.00;100.00;99089.00;4976475;28;20519;-77
2020/12/07 09:16:00;;;;;;;3.70;1.30;;;;;;;9.01;100.00;99087.88;4976702;28;20936;-77
2020/12/07 09:18:27;;;;;;;2.43;0.50;;;;;;;8.78;100.00;99084.78;4983371;28;20448;-79
2020/12/07 09:20:52;;;;;;;2.07;0.43;;;;;;;9.02;100.00;99091.31;4974907;28;20458;-80
2020/12/07 09:23:18;;;;;;;3.03;0.70;;;;;;;8.88;100.00;99086.69;4976103;28;20911;-79
2020/12/07 09:25:43;;;;;;;1.80;0.43;;;;;;;8.83;100.00;99091.66;4975946;28;20192;-80
2020/12/07 09:28:09;;;;;;;2.60;0.73;;;;;;;9.01;100.00;99089.78;4976088;28;20731;-78
2020/12/07 09:30:36;;;;;;;4.67;0.87;;;;;;;8.89;100.00;99095.50;4981226;28;20243;-80
2020/12/07 09:33:02;;;;;;;2.07;0.60;;;;;;;8.66;100.00;99095.88;4989163;28;20511;-80
2020/12/07 09:35:27;;;;;;;4.33;0.77;;;;;;;8.85;100.00;99098.19;4972850;28;20936;-79
2020/12/07 09:38:13;;;;;;;2.43;0.73;;;;;;;9.00;100.00;99099.75;4987299;28;20654;-80
2020/12/07 09:40:39;;;;;;;1.93;0.47;;;;;;;9.00;100.00;99097.06;4932522;28;20259;-81
2020/12/07 09:43:05;;;;;;;2.50;0.60;;;;;;;8.97;100.00;99107.81;4940375;28;20467;-80
2020/12/07 09:45:32;;;;;;;3.00;0.83;;;;;;;8.86;100.00;99107.81;4949862;28;20446;-80
2020/12/07 09:47:58;;;;;;;4.10;0.80;;;;;;;8.77;100.00;99110.06;4933167;28;20483;-80
2020/12/07 09:50:24;;;;;;;3.00;0.87;;;;;;;8.88;100.00;99107.41;4932858;28;20462;-80
2020/12/07 09:52:49;;;;;;;1.57;0.40;;;;;;;8.80;100.00;99109.31;4939778;28;20500;-78
2020/12/07 09:55:15;;;;;;;4.00;0.90;;;;;;;8.72;100.00;99118.50;4947819;28;20214;-80
2020/12/07 09:57:40;;;;;;;2.50;0.50;;;;;;;8.70;100.00;99102.00;4949140;28;20238;-81
2020/12/07 10:00:26;;;;;;;2.73;0.80;;;;;;;8.74;100.00;99100.09;4947803;28;20187;-79
2020/12/07 10:02:52;;;;;;;2.63;0.50;;;;;;;8.57;100.00;99116.16;4890396;29;20766;-79
2020/12/07 10:05:18;;;;;;;3.00;0.80;;;;;;;8.67;100.00;99110.81;4891944;29;20531;-79
2020/12/07 10:07:43;;;;;;;3.93;1.00;;;;;;;8.76;100.00;99105.09;4892480;29;20368;-79
2020/12/07 10:10:09;;;;;;;2.50;0.60;;;;;;;8.59;100.00;99116.56;4891308;29;20227;-79
2020/12/07 10:12:34;;;;;;;2.17;0.50;;;;;;;8.45;100.00;99119.94;4878330;29;20227;-79
2020/12/07 10:15:01;;;;;;;1.70;0.50;;;;;;;8.40;100.00;99116.88;4869128;29;20269;-76
2020/12/07 10:17:47;;;;;;;2.50;0.53;;;;;;;8.34;100.00;99121.84;4905922;29;20287;-78
2020/12/07 10:20:12;;;;;;;2.10;0.53;;;;;;;8.13;100.00;99110.97;4890582;29;20524;-79
2020/12/07 10:22:38;;;;;;;2.83;0.67;;;;;;;8.35;100.00;99109.94;4887874;29;20873;-79
2020/12/07 10:25:03;;;;;;;2.93;0.70;;;;;;;8.24;100.00;99125.22;4888895;29;20345;-79
2020/12/07 10:27:29;;;;;;;3.10;0.93;;;;;;;8.25;100.00;99110.66;4893510;29;20235;-79
2020/12/07 10:29:54;;;;;;;3.20;0.67;;;;;;;8.38;100.00;99114.53;4886586;29;20185;-77
2020/12/07 10:32:20;;;;;;;3.20;1.03;;;;;;;8.28;100.00;99117.19;4879040;29;20285;-80
2020/12/07 10:34:45;;;;;;;3.67;0.83;;;;;;;8.12;100.00;99117.47;4889410;29;20572;-79
2020/12/07 10:37:12;;;;;;;3.07;0.73;;;;;;;8.02;100.00;99129.69;4899358;29;20574;-79
2020/12/07 10:39:38;;;;;;;3.60;1.00;;;;;;;8.15;100.00;99130.91;4894867;29;20735;-78
2020/12/07 10:42:03;;;;;;;4.20;0.87;;;;;;;8.05;100.00;99133.53;4930295;29;20447;-79
2020/12/07 10:44:29;;;;;;;3.30;1.33;;;;;;;7.97;100.00;99142.69;4925577;29;20710;-79
2020/12/07 10:46:54;;;;;;;3.27;1.17;;;;;;;7.81;100.00;99139.50;4929031;29;20184;-76
2020/12/07 10:49:20;;;;;;;5.23;1.20;;;;;;;7.85;100.00;99162.50;4930235;29;20278;-80
2020/12/07 10:51:47;;;;;;;5.00;0.97;;;;;;;7.95;100.00;99151.09;4928251;29;20203;-76
2020/12/07 10:54:13;;;;;;;2.97;0.60;;;;;;;8.05;100.00;99163.78;4935215;29;20218;-79
2020/12/07 10:56:41;;;;;;;3.30;1.20;;;;;;;8.18;100.00;99166.91;4926597;28;20552;-79
2020/12/07 10:59:07;;;;;;;4.13;1.37;;;;;;;8.16;100.00;99163.84;4989143;28;20431;-79
2020/12/07 11:01:32;;;;;;;4.70;0.83;;;;;;;8.21;100.00;99166.16;4991616;28;21051;-75
2020/12/07 11:03:58;;;;;;;3.73;1.13;;;;;;;8.34;100.00;99161.28;5011839;28;20213;-77
2020/12/07 11:06:30;;;;;;;4.83;1.20;;;;;;;7.88;100.00;99167.13;4992622;28;20514;-78
2020/12/07 11:08:57;;;;;;;3.57;1.40;;;;;;;7.70;100.00;99173.50;4999580;28;20248;-78
2020/12/07 11:11:22;;;;;;;5.60;1.37;;;;;;;7.66;100.00;99184.19;4988478;28;20439;-79
2020/12/07 11:13:48;;;;;;;2.53;0.77;;;;;;;7.94;100.00;99202.38;4989629;28;20473;-78
2020/12/07 11:16:15;;;;;;;2.17;0.50;;;;;;;7.96;100.00;99200.09;4981800;28;20198;-79
2020/12/07 11:18:42;;;;;;;3.90;1.00;;;;;;;7.86;100.00;99208.81;4978464;28;20510;-79
2020/12/07 11:21:14;;;;;;;5.20;1.40;;;;;;;7.49;100.00;99206.22;4984863;28;20507;-77
2020/12/07 11:23:42;;;;;;;3.97;1.30;;;;;;;7.43;100.00;99204.28;4982499;28;21878;-80
2020/12/07 11:26:08;;;;;;;2.17;0.60;;;;;;;7.19;100.00;99214.38;4983061;28;20430;-77
2020/12/07 11:28:34;;;;;;;3.00;0.73;;;;;;;7.30;100.00;99207.22;4978108;28;20466;-79
2020/12/07 11:30:59;;;;;;;2.90;0.60;;;;;;;7.21;100.00;99204.06;4986344;28;20948;-78
2020/12/07 11:33:25;;;;;;;4.80;0.73;;;;;;;7.38;100.00;99216.06;4989484;28;20739;-80
2020/12/07 11:35:50;;;;;;;3.97;1.13;;;;;;;7.34;100.00;99209.16;4987362;28;20204;-79
2020/12/07 11:38:19;;;;;;;2.40;0.70;;;;;;;7.18;100.00;99218.19;4988368;28;20235;-79
2020/12/07 11:44:17;;;;;;;3.40;1.13;;;;;;;7.42;100.00;99213.44;4980839;28;20469;-79
2020/12/07 11:46:21;;;;;;;3.10;0.90;;;;;;;7.18;100.00;99210.16;4969370;28;20480;-79
2020/12/07 11:48:47;;;;;;;3.40;1.00;;;;;;;7.34;100.00;99206.50;4978024;28;20440;-79
2020/12/07 11:51:13;;;;;;;2.80;0.97;;;;;;;7.19;100.00;99214.38;4978829;28;20512;-79
2020/12/07 11:53:38;;;;;;;2.70;0.67;;;;;;;7.11;100.00;99215.44;4975990;28;20208;-80
2020/12/07 11:56:03;;;;;;;4.20;1.10;;;;;;;7.13;100.00;99215.84;4976069;28;20694;-78
2020/12/07 11:58:29;;;;;;;2.37;0.70;;;;;;;7.23;100.00;99212.50;4969909;28;20622;-79
2020/12/07 12:00:54;;;;;;;2.80;0.57;;;;;;;7.38;100.00;99204.59;4980403;28;20182;-80
2020/12/07 12:03:20;;;;;;;5.13;0.97;;;;;;;7.44;100.00;99216.50;4979205;28;20260;-79
2020/12/07 12:05:45;;;;;;;3.37;0.80;;;;;;;7.48;100.00;99225.34;4974958;28;20253;-79
2020/12/07 12:08:11;;;;;;;3.03;0.80;;;;;;;7.09;100.00;99243.69;4969939;28;20204;-79
2020/12/07 12:10:36;;;;;;;2.10;0.57;;;;;;;6.85;100.00;99230.81;4979352;28;20197;-77